Time;durP1;ratioP1;P1;durP2;ratioP2;P2;SDS_P1;SDS_P2;PMS_P1;PMS_P2;Temp;Humidity;BMP_temperature;BMP_pressure;BME280_temperature;BME280_humidity;BME280_pressure;Samples;Min_cycle;Max_cycle;Signal;HPM_P1;HPM_P2
2023/02/14 00:01:17;;;;;;;;;;;2.00;99.90;;;;;;5077247;28;19920;-53
2023/02/14 00:03:44;;;;;;;;;;;2.00;99.90;;;;;;5076809;28;19920;-55
2023/02/14 00:06:12;;;;;;;;;;;2.00;99.90;;;;;;5072104;28;19953;-58
2023/02/14 00:08:39;;;;;;;;;;;1.90;99.90;;;;;;5076201;28;19920;-57
2023/02/14 00:11:07;;;;;;;;;;;1.90;99.90;;;;;;5076970;28;19920;-55
2023/02/14 00:13:34;;;;;;;;;;;1.90;99.90;;;;;;5076255;28;20225;-56
2023/02/14 00:16:00;;;;;;;;;;;1.90;99.90;;;;;;5076044;28;19926;-58
2023/02/14 00:19:01;;;;;;;;;;;1.90;99.90;;;;;;5076350;28;19916;-56
2023/02/14 00:21:15;;;;;;;;;;;1.90;99.90;;;;;;5076071;28;19963;-55
2023/02/14 00:23:42;;;;;;;;;;;1.90;99.90;;;;;;5075319;28;20382;-56
2023/02/14 00:26:13;;;;;;;;;;;1.90;99.90;;;;;;5074430;28;19925;-55
2023/02/14 00:28:40;;;;;;;;;;;1.90;99.90;;;;;;5074940;28;19927;-56
2023/02/14 00:31:06;;;;;;;;;;;1.80;99.90;;;;;;5075405;28;20216;-57
2023/02/14 00:33:33;;;;;;;;;;;1.80;99.90;;;;;;5075754;28;19920;-54
2023/02/14 00:36:02;;;;;;;;;;;1.80;99.90;;;;;;5076069;28;19924;-57
2023/02/14 00:38:30;;;;;;;;;;;1.80;99.90;;;;;;5074867;28;20334;-57
2023/02/14 00:40:57;;;;;;;;;;;1.80;99.90;;;;;;5076278;28;19959;-57
2023/02/14 00:43:24;;;;;;;;;;;1.90;99.90;;;;;;5075253;28;19920;-57
2023/02/14 00:45:51;;;;;;;;;;;1.90;99.90;;;;;;5075797;28;20331;-56
2023/02/14 00:48:18;;;;;;;;;;;1.90;99.90;;;;;;5076366;28;19921;-57
2023/02/14 00:50:46;;;;;;;;;;;1.90;99.90;;;;;;5073484;28;19920;-57
2023/02/14 00:53:13;;;;;;;;;;;1.90;99.90;;;;;;5074759;28;19920;-58
2023/02/14 00:55:41;;;;;;;;;;;1.80;99.90;;;;;;5075284;28;19920;-56
2023/02/14 00:58:08;;;;;;;;;;;1.80;99.90;;;;;;5074931;28;19935;-57
2023/02/14 01:00:35;;;;;;;;;;;1.90;99.90;;;;;;5075413;28;20030;-56
2023/02/14 01:03:01;;;;;;;;;;;2.10;99.90;;;;;;5073929;28;20011;-58
2023/02/14 01:05:28;;;;;;;;;;;2.20;99.90;;;;;;5073743;28;19935;-55
2023/02/14 01:07:55;;;;;;;;;;;2.30;99.90;;;;;;5076458;28;19920;-56
2023/02/14 01:10:22;;;;;;;;;;;2.40;99.90;;;;;;5076079;28;19928;-58
2023/02/14 01:12:50;;;;;;;;;;;2.40;99.90;;;;;;5074655;28;19928;-56
2023/02/14 01:15:17;;;;;;;;;;;2.40;99.90;;;;;;5075025;28;19921;-57
2023/02/14 01:17:44;;;;;;;;;;;2.50;99.90;;;;;;5074082;28;20228;-55
2023/02/14 01:20:11;;;;;;;;;;;2.60;99.90;;;;;;5075295;28;19926;-57
2023/02/14 01:22:38;;;;;;;;;;;2.70;99.90;;;;;;5075868;28;20158;-56
2023/02/14 01:25:05;;;;;;;;;;;2.50;99.90;;;;;;5075986;28;19921;-57
2023/02/14 01:27:32;;;;;;;;;;;2.30;99.90;;;;;;5075882;28;19925;-55
2023/02/14 01:30:00;;;;;;;;;;;2.30;99.90;;;;;;5075809;28;19920;-56
2023/02/14 01:32:30;;;;;;;;;;;2.40;99.90;;;;;;5076326;28;19928;-59
2023/02/14 01:34:57;;;;;;;;;;;2.30;99.90;;;;;;5076242;28;20299;-59
2023/02/14 01:37:23;;;;;;;;;;;2.40;99.90;;;;;;5076092;28;19920;-59
2023/02/14 01:39:50;;;;;;;;;;;2.40;99.90;;;;;;5075185;28;20184;-58
2023/02/14 01:42:17;;;;;;;;;;;2.40;99.90;;;;;;5075264;28;19920;-59
2023/02/14 01:44:55;;;;;;;;;;;2.40;99.90;;;;;;5075088;28;20003;-59
2023/02/14 01:47:23;;;;;;;;;;;2.40;99.90;;;;;;5074701;28;19927;-59
2023/02/14 01:49:53;;;;;;;;;;;2.40;99.90;;;;;;5077422;28;19921;-57
2023/02/14 01:52:22;;;;;;;;;;;2.50;99.90;;;;;;5078611;28;20224;-57
2023/02/14 01:54:50;;;;;;;;;;;2.50;99.90;;;;;;5077138;28;19921;-55
2023/02/14 01:57:19;;;;;;;;;;;2.50;99.90;;;;;;5077469;28;19920;-56
2023/02/14 01:59:48;;;;;;;;;;;2.50;99.90;;;;;;5078202;28;19928;-59
2023/02/14 02:02:22;;;;;;;;;;;2.40;99.90;;;;;;5078345;28;19921;-56
2023/02/14 02:04:53;;;;;;;;;;;2.40;99.90;;;;;;5078291;28;20324;-57
2023/02/14 02:07:23;;;;;;;;;;;2.40;99.90;;;;;;5078575;28;19977;-54
2023/02/14 02:09:52;;;;;;;;;;;2.40;99.90;;;;;;5078173;28;19921;-57
2023/02/14 02:12:19;;;;;;;;;;;2.40;99.90;;;;;;5077764;28;20317;-61
2023/02/14 02:14:46;;;;;;;;;;;2.40;99.90;;;;;;5076639;28;19928;-57
2023/02/14 02:17:19;;;;;;;;;;;2.40;99.90;;;;;;5078147;28;19924;-58
2023/02/14 02:20:03;;;;;;;;;;;2.40;99.90;;;;;;5077448;28;19982;-57
2023/02/14 02:22:43;;;;;;;;;;;2.30;99.90;;;;;;5078227;28;20026;-55
2023/02/14 02:25:18;;;;;;;;;;;2.30;99.90;;;;;;5076654;28;19955;-57
2023/02/14 02:28:06;;;;;;;;;;;2.20;99.90;;;;;;5075855;28;19920;-60
2023/02/14 02:30:43;;;;;;;;;;;2.10;99.90;;;;;;5069339;28;19920;-58
2023/02/14 02:33:34;;;;;;;;;;;2.20;99.90;;;;;;5076122;28;19927;-57
2023/02/14 02:36:10;;;;;;;;;;;2.10;99.90;;;;;;5076230;28;19926;-54
2023/02/14 02:38:43;;;;;;;;;;;2.00;99.90;;;;;;5074948;28;19932;-54
2023/02/14 02:41:15;;;;;;;;;;;2.10;99.90;;;;;;5077105;28;19920;-56
2023/02/14 02:43:44;;;;;;;;;;;2.10;99.90;;;;;;5075934;28;19928;-56
2023/02/14 02:49:00;;;;;;;;;;;2.00;99.90;;;;;;5076609;28;19943;-57
2023/02/14 02:54:19;;;;;;;;;;;1.90;99.90;;;;;;5076658;28;19990;-55
2023/02/14 02:56:49;;;;;;;;;;;1.80;99.90;;;;;;5077195;28;19920;-57
2023/02/14 02:59:19;;;;;;;;;;;1.90;99.90;;;;;;5076549;28;19947;-58
2023/02/14 03:01:49;;;;;;;;;;;2.00;99.90;;;;;;5076463;28;19932;-56
2023/02/14 03:07:33;;;;;;;;;;;1.90;99.90;;;;;;5077312;28;19931;-57
2023/02/14 03:09:51;;;;;;;;;;;1.90;99.90;;;;;;5078523;28;19920;-58
2023/02/14 03:12:26;;;;;;;;;;;1.80;99.90;;;;;;5078092;28;19920;-57
2023/02/14 03:14:58;;;;;;;;;;;1.80;99.90;;;;;;5077436;28;19920;-61
2023/02/14 03:17:29;;;;;;;;;;;1.80;99.90;;;;;;5077972;28;19920;-59
2023/02/14 03:20:15;;;;;;;;;;;2.00;99.90;;;;;;5077729;28;20330;-60
2023/02/14 03:22:51;;;;;;;;;;;2.10;99.90;;;;;;5077069;28;19917;-59
2023/02/14 03:25:23;;;;;;;;;;;2.20;99.90;;;;;;5076600;28;19931;-59
2023/02/14 03:27:53;;;;;;;;;;;2.30;99.90;;;;;;5076679;28;19927;-59
2023/02/14 03:30:24;;;;;;;;;;;2.20;99.90;;;;;;5076561;28;19920;-59
2023/02/14 03:32:56;;;;;;;;;;;2.20;99.90;;;;;;5076819;28;19931;-59
2023/02/14 03:35:26;;;;;;;;;;;2.20;99.90;;;;;;5076764;28;19920;-59
2023/02/14 03:37:55;;;;;;;;;;;2.10;99.90;;;;;;5077063;28;19920;-59
2023/02/14 03:40:23;;;;;;;;;;;2.10;99.90;;;;;;5077376;28;20307;-59
2023/02/14 03:42:51;;;;;;;;;;;2.00;99.90;;;;;;5076371;28;19920;-60
2023/02/14 03:45:20;;;;;;;;;;;1.90;99.90;;;;;;5076841;28;19924;-60
2023/02/14 03:47:47;;;;;;;;;;;1.90;99.90;;;;;;5075613;28;19927;-60
2023/02/14 03:50:16;;;;;;;;;;;1.80;99.90;;;;;;5075439;28;20420;-59
2023/02/14 03:52:43;;;;;;;;;;;1.90;99.90;;;;;;5075822;28;20116;-59
2023/02/14 03:55:14;;;;;;;;;;;1.90;99.90;;;;;;5075321;28;20236;-59
2023/02/14 03:57:46;;;;;;;;;;;1.90;99.90;;;;;;5073961;28;20224;-58
2023/02/14 04:00:14;;;;;;;;;;;2.00;99.90;;;;;;5074439;28;20019;-58
2023/02/14 04:02:42;;;;;;;;;;;2.00;99.90;;;;;;5074942;28;19921;-58
2023/02/14 04:05:12;;;;;;;;;;;2.00;99.90;;;;;;5075516;28;19920;-59
2023/02/14 04:07:44;;;;;;;;;;;2.00;99.90;;;;;;5075676;28;20303;-59
2023/02/14 04:10:12;;;;;;;;;;;1.90;99.90;;;;;;5075396;28;19920;-59
2023/02/14 04:12:39;;;;;;;;;;;1.80;99.90;;;;;;5076708;28;19921;-59
2023/02/14 04:15:06;;;;;;;;;;;1.70;99.90;;;;;;5077008;28;20196;-60
2023/02/14 04:20:18;;;;;;;;;;;1.50;99.90;;;;;;5076466;28;19923;-63
2023/02/14 04:22:46;;;;;;;;;;;1.40;99.90;;;;;;5076897;28;19926;-60
2023/02/14 04:25:15;;;;;;;;;;;1.40;99.90;;;;;;5076086;28;19928;-59
2023/02/14 04:27:42;;;;;;;;;;;1.30;99.90;;;;;;5075286;28;19928;-59
2023/02/14 04:30:11;;;;;;;;;;;1.30;99.90;;;;;;5076743;28;20205;-59
2023/02/14 04:32:38;;;;;;;;;;;1.30;99.90;;;;;;5076760;28;19924;-60
2023/02/14 04:35:05;;;;;;;;;;;1.30;99.90;;;;;;5076736;28;19955;-60
2023/02/14 04:37:32;;;;;;;;;;;1.30;99.90;;;;;;5075873;28;20193;-59
2023/02/14 04:39:59;;;;;;;;;;;1.40;99.90;;;;;;5076562;28;20228;-59
2023/02/14 04:42:27;;;;;;;;;;;1.40;99.90;;;;;;5076771;28;19928;-61
2023/02/14 04:44:54;;;;;;;;;;;1.40;99.90;;;;;;5075403;28;19924;-59
2023/02/14 04:47:21;;;;;;;;;;;1.40;99.90;;;;;;5075609;28;20301;-60
2023/02/14 04:49:48;;;;;;;;;;;1.40;99.90;;;;;;5075890;28;20217;-58
2023/02/14 04:52:15;;;;;;;;;;;1.40;99.90;;;;;;5075898;28;19970;-58
2023/02/14 04:54:42;;;;;;;;;;;1.40;99.90;;;;;;5076476;28;19920;-56
2023/02/14 04:57:09;;;;;;;;;;;1.40;99.90;;;;;;5076585;28;19920;-54
2023/02/14 04:59:37;;;;;;;;;;;1.40;99.90;;;;;;5075466;28;19920;-59
2023/02/14 05:02:04;;;;;;;;;;;1.40;99.90;;;;;;5074706;28;19921;-58
2023/02/14 05:04:31;;;;;;;;;;;1.40;99.90;;;;;;5074996;28;19920;-58
2023/02/14 05:06:57;;;;;;;;;;;1.40;99.90;;;;;;5075761;28;19924;-58
2023/02/14 05:09:24;;;;;;;;;;;1.30;99.90;;;;;;5075572;28;19931;-59
2023/02/14 05:11:51;;;;;;;;;;;1.30;99.90;;;;;;5074428;28;19921;-59
2023/02/14 05:14:18;;;;;;;;;;;1.20;99.90;;;;;;5075881;28;19920;-59
2023/02/14 05:16:46;;;;;;;;;;;1.30;99.90;;;;;;5074686;28;20331;-58
2023/02/14 05:19:13;;;;;;;;;;;1.30;99.90;;;;;;5075171;28;19921;-59
2023/02/14 05:21:40;;;;;;;;;;;1.30;99.90;;;;;;5075704;28;19920;-59
2023/02/14 05:24:07;;;;;;;;;;;1.30;99.90;;;;;;5077858;28;19924;-59
2023/02/14 05:26:34;;;;;;;;;;;1.30;99.90;;;;;;5079133;28;20308;-58
2023/02/14 05:29:01;;;;;;;;;;;1.20;99.90;;;;;;5080028;28;20018;-58
2023/02/14 05:31:28;;;;;;;;;;;1.30;99.90;;;;;;5078590;28;19921;-59
2023/02/14 05:33:56;;;;;;;;;;;1.30;99.90;;;;;;5079279;28;19920;-58
2023/02/14 05:36:23;;;;;;;;;;;1.30;99.90;;;;;;5078940;28;20228;-58
2023/02/14 05:38:49;;;;;;;;;;;1.20;99.90;;;;;;5079401;28;19927;-59
2023/02/14 05:41:16;;;;;;;;;;;1.20;99.90;;;;;;5078520;28;19931;-58
2023/02/14 05:43:43;;;;;;;;;;;1.20;99.90;;;;;;5077653;28;19927;-58
2023/02/14 05:46:10;;;;;;;;;;;1.20;99.90;;;;;;5077331;28;19920;-58
2023/02/14 05:48:37;;;;;;;;;;;1.20;99.90;;;;;;5075816;28;19939;-59
2023/02/14 05:51:05;;;;;;;;;;;1.20;99.90;;;;;;5078072;28;20335;-57
2023/02/14 05:53:32;;;;;;;;;;;1.30;99.90;;;;;;5078556;28;19924;-58
2023/02/14 05:55:59;;;;;;;;;;;1.30;99.90;;;;;;5078206;28;19927;-58
2023/02/14 05:58:28;;;;;;;;;;;1.20;99.90;;;;;;5078808;28;19926;-58
2023/02/14 06:00:56;;;;;;;;;;;1.20;99.90;;;;;;5078832;28;19921;-58
2023/02/14 06:03:23;;;;;;;;;;;1.10;99.90;;;;;;5074480;28;20341;-59
2023/02/14 06:05:49;;;;;;;;;;;1.20;99.90;;;;;;5075545;28;19920;-60
2023/02/14 06:08:18;;;;;;;;;;;1.20;99.90;;;;;;5077707;28;19971;-58
2023/02/14 06:10:46;;;;;;;;;;;1.10;99.90;;;;;;5076997;28;20366;-59
2023/02/14 06:13:13;;;;;;;;;;;1.00;99.90;;;;;;5075433;28;19924;-59
2023/02/14 06:15:39;;;;;;;;;;;0.90;99.90;;;;;;5074574;28;20338;-58
2023/02/14 06:18:06;;;;;;;;;;;1.00;99.90;;;;;;5074621;28;19920;-59
2023/02/14 06:20:33;;;;;;;;;;;1.00;99.90;;;;;;5074605;28;19924;-59
2023/02/14 06:23:00;;;;;;;;;;;0.90;99.90;;;;;;5073723;28;19927;-59
2023/02/14 06:25:28;;;;;;;;;;;0.90;99.90;;;;;;5074104;28;20325;-58
2023/02/14 06:27:55;;;;;;;;;;;0.90;99.90;;;;;;5073872;28;20305;-60
2023/02/14 06:30:22;;;;;;;;;;;0.90;99.90;;;;;;5073706;28;20019;-59
2023/02/14 06:32:49;;;;;;;;;;;0.90;99.90;;;;;;5076396;28;19921;-59
2023/02/14 06:35:16;;;;;;;;;;;0.90;99.90;;;;;;5076656;28;19927;-59
2023/02/14 06:37:44;;;;;;;;;;;0.90;99.90;;;;;;5076839;28;19928;-59
2023/02/14 06:40:11;;;;;;;;;;;0.90;99.90;;;;;;5075593;28;19920;-59
2023/02/14 06:42:40;;;;;;;;;;;0.80;99.90;;;;;;5072701;28;19932;-59
2023/02/14 06:45:07;;;;;;;;;;;0.80;99.90;;;;;;5075112;28;19927;-59
2023/02/14 06:47:34;;;;;;;;;;;0.90;99.90;;;;;;5076353;28;19920;-58
2023/02/14 06:50:03;;;;;;;;;;;0.80;99.90;;;;;;5076049;28;19920;-59
2023/02/14 06:52:29;;;;;;;;;;;0.90;99.90;;;;;;5075737;28;19931;-59
2023/02/14 06:54:57;;;;;;;;;;;0.90;99.90;;;;;;5074257;28;20271;-59
2023/02/14 06:57:24;;;;;;;;;;;0.90;99.90;;;;;;5077270;28;19921;-59
2023/02/14 06:59:52;;;;;;;;;;;0.90;99.90;;;;;;5074396;28;19969;-59
2023/02/14 07:02:19;;;;;;;;;;;0.90;99.90;;;;;;5070929;28;19928;-59
2023/02/14 07:04:46;;;;;;;;;;;0.90;99.90;;;;;;5074085;28;20465;-59
2023/02/14 07:07:13;;;;;;;;;;;0.80;99.90;;;;;;5074083;28;20619;-58
2023/02/14 07:09:40;;;;;;;;;;;0.80;99.90;;;;;;5076649;28;19927;-58
2023/02/14 07:12:09;;;;;;;;;;;0.80;99.90;;;;;;5075934;28;20212;-58
2023/02/14 07:14:36;;;;;;;;;;;0.70;99.90;;;;;;5072882;28;19921;-57
2023/02/14 07:17:05;;;;;;;;;;;0.80;99.90;;;;;;5071053;28;21582;-57
2023/02/14 07:19:31;;;;;;;;;;;0.80;99.90;;;;;;5070012;28;20054;-57
2023/02/14 07:21:58;;;;;;;;;;;0.80;99.90;;;;;;5063184;28;20503;-56
2023/02/14 07:24:25;;;;;;;;;;;0.80;99.90;;;;;;5071789;28;19920;-55
2023/02/14 07:26:52;;;;;;;;;;;0.80;99.90;;;;;;5068619;28;20482;-58
2023/02/14 07:29:19;;;;;;;;;;;0.80;99.90;;;;;;5072593;28;19925;-57
2023/02/14 07:31:46;;;;;;;;;;;0.80;99.90;;;;;;5073756;28;20019;-58
2023/02/14 07:34:14;;;;;;;;;;;0.80;99.90;;;;;;5073539;28;20232;-50
2023/02/14 07:36:41;;;;;;;;;;;0.90;99.90;;;;;;5061403;28;19920;-54
2023/02/14 07:39:07;;;;;;;;;;;1.10;99.90;;;;;;5072845;28;19967;-55
2023/02/14 07:41:34;;;;;;;;;;;1.70;99.90;;;;;;5072224;28;19927;-54
2023/02/14 07:44:01;;;;;;;;;;;1.70;99.90;;;;;;5071320;28;19927;-55
2023/02/14 07:46:28;;;;;;;;;;;1.80;99.90;;;;;;5070867;28;19926;-53
2023/02/14 07:48:55;;;;;;;;;;;1.80;99.90;;;;;;5070449;28;19927;-55
2023/02/14 07:51:23;;;;;;;;;;;1.70;99.90;;;;;;5071153;28;19921;-55
2023/02/14 07:53:50;;;;;;;;;;;1.80;99.90;;;;;;5070254;28;20382;-56
2023/02/14 07:56:17;;;;;;;;;;;1.80;99.90;;;;;;5056870;28;19931;-54
2023/02/14 07:58:44;;;;;;;;;;;1.80;99.90;;;;;;5069872;28;20291;-55
2023/02/14 08:01:10;;;;;;;;;;;1.80;99.90;;;;;;5071857;28;19990;-53
2023/02/14 08:03:37;;;;;;;;;;;1.90;99.90;;;;;;5061939;28;19920;-51
2023/02/14 08:06:04;;;;;;;;;;;2.10;99.90;;;;;;5064950;28;19928;-53
2023/02/14 08:08:32;;;;;;;;;;;2.10;99.90;;;;;;5055663;28;19952;-51
2023/02/14 08:10:59;;;;;;;;;;;2.20;99.90;;;;;;5070088;28;19920;-54
2023/02/14 08:13:26;;;;;;;;;;;2.30;99.90;;;;;;5070634;28;19928;-54
2023/02/14 08:16:05;;;;;;;;;;;2.40;99.90;;;;;;5071148;28;19942;-50
2023/02/14 08:18:33;;;;;;;;;;;2.80;99.90;;;;;;5068984;28;19920;-50
2023/02/14 08:21:00;;;;;;;;;;;2.90;99.90;;;;;;5066104;28;20331;-51
2023/02/14 08:23:27;;;;;;;;;;;2.90;99.90;;;;;;5073662;28;19920;-53
2023/02/14 08:25:55;;;;;;;;;;;3.20;99.90;;;;;;5060648;28;19921;-54
2023/02/14 08:28:22;;;;;;;;;;;3.10;99.90;;;;;;5071714;28;19920;-50
2023/02/14 08:30:49;;;;;;;;;;;3.00;99.90;;;;;;5065570;28;19920;-52
2023/02/14 08:33:16;;;;;;;;;;;3.00;99.90;;;;;;5065510;28;19920;-51
2023/02/14 08:35:43;;;;;;;;;;;2.90;99.90;;;;;;5049672;28;19932;-52
2023/02/14 08:38:10;;;;;;;;;;;2.70;99.90;;;;;;5061436;28;19951;-52
2023/02/14 08:40:38;;;;;;;;;;;2.80;99.90;;;;;;5063485;28;20011;-54
2023/02/14 08:43:07;;;;;;;;;;;2.60;99.90;;;;;;5073860;28;20365;-55
2023/02/14 08:45:34;;;;;;;;;;;2.60;99.90;;;;;;5071313;28;19927;-51
2023/02/14 08:48:01;;;;;;;;;;;2.50;99.90;;;;;;5068430;28;20209;-53
2023/02/14 08:50:28;;;;;;;;;;;2.80;99.90;;;;;;5058030;28;20293;-53
2023/02/14 08:52:55;;;;;;;;;;;3.20;99.90;;;;;;5062514;28;19920;-54
2023/02/14 08:55:22;;;;;;;;;;;3.50;99.90;;;;;;5063362;28;19920;-54
2023/02/14 08:57:49;;;;;;;;;;;4.00;99.90;;;;;;5054829;28;19921;-52
2023/02/14 09:00:18;;;;;;;;;;;4.10;99.90;;;;;;5067405;28;19920;-52
2023/02/14 09:02:45;;;;;;;;;;;3.80;99.90;;;;;;5056487;28;20243;-54
2023/02/14 09:05:12;;;;;;;;;;;3.70;99.90;;;;;;5064450;28;19931;-55
2023/02/14 09:07:38;;;;;;;;;;;3.60;99.90;;;;;;5069060;28;19920;-55
2023/02/14 09:10:06;;;;;;;;;;;3.70;99.90;;;;;;5070575;28;19920;-53
2023/02/14 09:12:38;;;;;;;;;;;3.70;99.90;;;;;;5069909;28;19920;-53
2023/02/14 09:15:06;;;;;;;;;;;3.70;99.90;;;;;;5072545;28;19985;-54
2023/02/14 09:17:35;;;;;;;;;;;3.70;99.90;;;;;;5067013;28;20015;-54
2023/02/14 09:20:01;;;;;;;;;;;3.80;99.90;;;;;;5068426;28;19920;-55
2023/02/14 09:22:28;;;;;;;;;;;4.00;99.90;;;;;;5070840;28;19935;-54
2023/02/14 09:24:55;;;;;;;;;;;4.00;99.90;;;;;;5070960;28;19950;-53
2023/02/14 09:27:22;;;;;;;;;;;4.00;99.90;;;;;;5069331;28;19951;-54
2023/02/14 09:29:49;;;;;;;;;;;4.00;99.90;;;;;;5068018;28;19920;-52
2023/02/14 09:32:16;;;;;;;;;;;4.10;99.90;;;;;;5071592;28;20366;-52
2023/02/14 09:34:45;;;;;;;;;;;4.20;99.90;;;;;;5073376;28;19987;-52
2023/02/14 09:37:12;;;;;;;;;;;4.40;99.90;;;;;;5072651;28;19928;-54
2023/02/14 09:39:39;;;;;;;;;;;4.50;99.90;;;;;;5070642;28;20201;-51
2023/02/14 09:42:32;;;;;;;;;;;4.50;99.90;;;;;;5072652;28;20348;-53
2023/02/14 09:45:01;;;;;;;;;;;4.40;99.90;;;;;;5024981;28;20324;-54
2023/02/14 09:47:33;;;;;;;;;;;4.40;99.90;;;;;;5070921;28;19944;-52
2023/02/14 09:50:01;;;;;;;;;;;4.40;99.90;;;;;;5064086;28;19920;-51
2023/02/14 09:52:30;;;;;;;;;;;4.50;99.90;;;;;;5069123;28;19924;-50
2023/02/14 09:54:59;;;;;;;;;;;4.60;99.90;;;;;;5071523;28;20223;-55
2023/02/14 09:57:31;;;;;;;;;;;4.60;99.90;;;;;;5073047;28;19920;-54
2023/02/14 10:00:02;;;;;;;;;;;4.80;99.90;;;;;;5071932;28;19963;-50
2023/02/14 10:02:39;;;;;;;;;;;4.80;99.90;;;;;;5072596;28;20300;-53
2023/02/14 10:05:10;;;;;;;;;;;4.80;99.90;;;;;;5072111;28;19924;-51
2023/02/14 10:07:41;;;;;;;;;;;4.90;99.90;;;;;;5070346;28;19920;-51
2023/02/14 10:10:12;;;;;;;;;;;5.00;99.90;;;;;;5062427;28;19924;-54
2023/02/14 10:12:42;;;;;;;;;;;5.00;99.90;;;;;;5075413;28;20452;-55
2023/02/14 10:15:13;;;;;;;;;;;5.10;99.90;;;;;;5073346;28;19921;-52
2023/02/14 10:17:42;;;;;;;;;;;5.20;99.90;;;;;;5075118;28;19920;-52
2023/02/14 10:20:20;;;;;;;;;;;5.40;99.90;;;;;;5075401;28;19920;-54
2023/02/14 10:22:50;;;;;;;;;;;5.40;99.90;;;;;;5073882;28;19939;-53
2023/02/14 10:25:20;;;;;;;;;;;5.40;99.90;;;;;;5070895;28;19920;-52
2023/02/14 10:27:48;;;;;;;;;;;5.50;99.90;;;;;;5072914;28;19920;-53
2023/02/14 10:30:16;;;;;;;;;;;5.70;99.90;;;;;;5071333;28;20023;-53
2023/02/14 10:32:45;;;;;;;;;;;5.80;99.90;;;;;;5071615;28;19920;-51
2023/02/14 10:35:16;;;;;;;;;;;5.90;99.90;;;;;;5074680;28;19924;-56
2023/02/14 10:37:50;;;;;;;;;;;5.90;99.90;;;;;;5075137;28;20225;-51
2023/02/14 10:40:27;;;;;;;;;;;6.00;99.90;;;;;;5075209;28;19927;-54
2023/02/14 10:42:58;;;;;;;;;;;5.90;99.90;;;;;;5073841;28;19920;-54
2023/02/14 10:45:28;;;;;;;;;;;6.00;99.90;;;;;;5073658;28;19920;-53
2023/02/14 10:47:58;;;;;;;;;;;6.10;99.90;;;;;;5075300;28;19921;-53
2023/02/14 10:50:28;;;;;;;;;;;6.30;99.90;;;;;;5074306;28;19920;-52
2023/02/14 10:53:03;;;;;;;;;;;6.40;99.90;;;;;;5069729;28;20463;-55
2023/02/14 10:55:36;;;;;;;;;;;6.60;99.90;;;;;;5072095;28;19924;-52
2023/02/14 10:58:06;;;;;;;;;;;6.60;99.90;;;;;;5074585;28;19927;-53
2023/02/14 11:00:34;;;;;;;;;;;6.80;99.90;;;;;;5074525;28;19928;-54
2023/02/14 11:03:04;;;;;;;;;;;7.00;99.90;;;;;;5069256;28;19927;-56
2023/02/14 11:05:32;;;;;;;;;;;7.20;99.90;;;;;;5070713;28;19997;-56
2023/02/14 11:08:01;;;;;;;;;;;7.40;99.90;;;;;;5071681;28;20265;-55
2023/02/14 11:10:31;;;;;;;;;;;7.50;99.90;;;;;;5073844;28;19920;-54
2023/02/14 11:12:57;;;;;;;;;;;7.40;99.90;;;;;;5073823;28;19920;-56
2023/02/14 11:15:26;;;;;;;;;;;7.30;99.90;;;;;;5072276;28;19921;-55
2023/02/14 11:18:15;;;;;;;;;;;7.50;99.90;;;;;;5071197;28;19927;-57
2023/02/14 11:20:41;;;;;;;;;;;7.60;99.90;;;;;;5074015;28;19927;-52
2023/02/14 11:23:19;;;;;;;;;;;7.90;99.90;;;;;;5071101;28;19931;-53
2023/02/14 11:25:50;;;;;;;;;;;8.10;99.90;;;;;;5075279;28;19928;-54
2023/02/14 11:28:18;;;;;;;;;;;8.40;99.90;;;;;;5073503;28;19920;-56
2023/02/14 11:30:46;;;;;;;;;;;8.50;99.90;;;;;;5072574;28;19930;-54
2023/02/14 11:33:13;;;;;;;;;;;8.60;99.90;;;;;;5073237;28;19928;-53
2023/02/14 11:35:41;;;;;;;;;;;8.60;99.90;;;;;;5073829;28;19920;-56
2023/02/14 11:38:24;;;;;;;;;;;8.70;99.90;;;;;;5071840;28;19920;-57
2023/02/14 11:40:55;;;;;;;;;;;8.90;99.90;;;;;;5073403;28;19927;-55
2023/02/14 11:43:30;;;;;;;;;;;9.00;99.90;;;;;;5069542;28;19924;-54
2023/02/14 11:46:05;;;;;;;;;;;9.00;99.90;;;;;;5073750;28;19927;-54
2023/02/14 11:48:34;;;;;;;;;;;9.10;99.90;;;;;;5073696;28;19920;-58
2023/02/14 11:51:03;;;;;;;;;;;9.10;99.90;;;;;;5075816;28;19926;-55
2023/02/14 11:53:33;;;;;;;;;;;9.10;99.90;;;;;;5074555;28;19965;-57
2023/02/14 11:56:02;;;;;;;;;;;9.10;99.90;;;;;;5074081;28;20250;-55
2023/02/14 11:58:30;;;;;;;;;;;9.20;99.90;;;;;;5074977;28;19928;-58
2023/02/14 12:00:58;;;;;;;;;;;9.20;99.90;;;;;;5063411;28;19920;-57
2023/02/14 12:03:26;;;;;;;;;;;9.30;99.90;;;;;;5073073;28;20212;-56
2023/02/14 12:05:59;;;;;;;;;;;9.40;99.90;;;;;;5067052;28;20316;-57
2023/02/14 12:08:28;;;;;;;;;;;9.50;99.90;;;;;;5067645;28;20328;-58
2023/02/14 12:11:03;;;;;;;;;;;9.60;99.90;;;;;;5072059;28;20331;-56
2023/02/14 12:13:30;;;;;;;;;;;9.70;99.90;;;;;;5064508;28;19924;-56
2023/02/14 12:15:58;;;;;;;;;;;9.60;99.90;;;;;;5061610;28;19921;-59
2023/02/14 12:18:33;;;;;;;;;;;9.60;99.90;;;;;;5067369;28;20308;-58
2023/02/14 12:21:03;;;;;;;;;;;9.60;99.90;;;;;;5054658;28;19939;-58
2023/02/14 12:23:33;;;;;;;;;;;9.60;99.90;;;;;;5065775;28;19928;-58
2023/02/14 12:26:04;;;;;;;;;;;9.80;99.90;;;;;;5071477;28;19942;-59
2023/02/14 12:28:37;;;;;;;;;;;10.00;99.90;;;;;;5053884;28;20225;-58
2023/02/14 12:31:09;;;;;;;;;;;10.10;99.90;;;;;;5069648;28;19924;-59
2023/02/14 12:33:35;;;;;;;;;;;10.10;99.90;;;;;;5066143;28;19921;-59
2023/02/14 12:36:07;;;;;;;;;;;10.20;99.90;;;;;;5073561;28;19927;-58
2023/02/14 12:38:40;;;;;;;;;;;10.20;99.90;;;;;;5069956;28;20021;-58
2023/02/14 12:41:19;;;;;;;;;;;10.30;99.90;;;;;;5064689;28;19987;-58
2023/02/14 12:43:49;;;;;;;;;;;10.20;99.90;;;;;;5068012;28;20220;-59
2023/02/14 12:46:23;;;;;;;;;;;10.30;99.90;;;;;;5068495;28;19952;-59
2023/02/14 12:49:01;;;;;;;;;;;10.30;99.90;;;;;;5069445;28;20375;-59
2023/02/14 12:51:30;;;;;;;;;;;10.40;99.90;;;;;;5068326;28;19943;-59
2023/02/14 12:53:59;;;;;;;;;;;10.30;99.90;;;;;;5060279;28;20472;-59
2023/02/14 12:56:33;;;;;;;;;;;10.30;99.90;;;;;;5068278;28;19928;-59
2023/02/14 12:59:04;;;;;;;;;;;10.40;99.90;;;;;;5064485;28;19934;-59
2023/02/14 13:01:38;;;;;;;;;;;10.20;99.90;;;;;;5067831;28;20003;-59
2023/02/14 13:04:21;;;;;;;;;;;10.00;99.90;;;;;;5070465;28;20015;-58
2023/02/14 13:06:51;;;;;;;;;;;9.90;99.90;;;;;;5069828;28;20569;-57
2023/02/14 13:09:28;;;;;;;;;;;9.90;99.90;;;;;;5071050;28;19920;-58
2023/02/14 13:12:01;;;;;;;;;;;9.90;99.90;;;;;;5071476;28;19926;-58
2023/02/14 13:14:47;;;;;;;;;;;10.00;99.90;;;;;;5068159;28;20391;-58
2023/02/14 13:17:19;;;;;;;;;;;10.10;99.90;;;;;;5069518;28;20308;-59
2023/02/14 13:19:49;;;;;;;;;;;10.10;99.90;;;;;;5071596;28;19920;-58
2023/02/14 13:22:17;;;;;;;;;;;10.00;99.90;;;;;;5072335;28;19921;-57
2023/02/14 13:24:46;;;;;;;;;;;10.00;99.90;;;;;;5061254;28;19979;-59
2023/02/14 13:27:20;;;;;;;;;;;10.00;99.90;;;;;;5067127;28;19929;-59
2023/02/14 13:29:48;;;;;;;;;;;10.00;99.90;;;;;;5060093;28;19929;-58
2023/02/14 13:32:17;;;;;;;;;;;10.10;99.90;;;;;;5067603;28;19920;-59
2023/02/14 13:34:46;;;;;;;;;;;10.00;99.90;;;;;;5063050;28;19927;-59
2023/02/14 13:37:15;;;;;;;;;;;10.10;99.90;;;;;;5070065;28;19924;-58
2023/02/14 13:39:43;;;;;;;;;;;10.10;99.90;;;;;;5074258;28;19920;-59
2023/02/14 13:42:10;;;;;;;;;;;10.10;99.90;;;;;;5071394;28;19961;-57
2023/02/14 13:44:45;;;;;;;;;;;10.20;99.90;;;;;;5073428;28;19928;-58
2023/02/14 13:47:19;;;;;;;;;;;10.00;99.90;;;;;;5075987;28;20034;-58
2023/02/14 13:49:48;;;;;;;;;;;10.00;99.90;;;;;;5071999;28;20449;-58
2023/02/14 13:52:35;;;;;;;;;;;10.00;99.90;;;;;;5073242;28;19974;-59
2023/02/14 13:55:03;;;;;;;;;;;9.90;99.90;;;;;;5055527;28;19928;-58
2023/02/14 13:57:32;;;;;;;;;;;9.70;99.90;;;;;;5076446;28;19959;-58
2023/02/14 14:00:24;;;;;;;;;;;9.80;99.90;;;;;;5074328;28;19928;-58
2023/02/14 14:02:51;;;;;;;;;;;9.90;99.90;;;;;;5063391;28;19929;-58
2023/02/14 14:05:38;;;;;;;;;;;10.00;99.90;;;;;;5067744;28;19920;-59
2023/02/14 14:08:17;;;;;;;;;;;10.00;99.90;;;;;;5074895;28;20316;-58
2023/02/14 14:10:44;;;;;;;;;;;10.00;99.90;;;;;;5071715;28;19924;-58
2023/02/14 14:13:32;;;;;;;;;;;10.00;99.90;;;;;;5059482;28;19951;-58
2023/02/14 14:16:17;;;;;;;;;;;10.00;99.90;;;;;;5066710;28;20006;-58
2023/02/14 14:18:45;;;;;;;;;;;10.00;99.90;;;;;;5076201;28;19928;-58
2023/02/14 14:21:18;;;;;;;;;;;10.00;99.90;;;;;;5074039;28;19928;-58
2023/02/14 14:23:44;;;;;;;;;;;10.00;99.90;;;;;;5074816;28;19920;-56
2023/02/14 14:26:32;;;;;;;;;;;9.90;99.90;;;;;;5076177;28;20308;-57
2023/02/14 14:28:59;;;;;;;;;;;9.90;99.90;;;;;;5066278;28;19942;-57
2023/02/14 14:31:27;;;;;;;;;;;9.80;99.90;;;;;;5074324;28;20312;-56
2023/02/14 14:33:59;;;;;;;;;;;9.70;99.90;;;;;;5073848;28;19924;-58
2023/02/14 14:36:26;;;;;;;;;;;9.60;99.90;;;;;;5068878;28;20213;-58
2023/02/14 14:38:53;;;;;;;;;;;9.60;99.90;;;;;;5070662;28;19920;-58
2023/02/14 14:41:25;;;;;;;;;;;9.60;99.90;;;;;;5066797;28;19977;-58
2023/02/14 14:43:53;;;;;;;;;;;9.60;99.90;;;;;;5066994;28;20239;-58
2023/02/14 14:46:20;;;;;;;;;;;9.50;99.90;;;;;;5074316;28;19951;-58
2023/02/14 14:48:48;;;;;;;;;;;9.50;99.90;;;;;;5076350;28;19924;-59
2023/02/14 14:51:23;;;;;;;;;;;9.40;99.90;;;;;;5065326;28;20387;-59
2023/02/14 14:53:52;;;;;;;;;;;9.40;99.90;;;;;;5057252;28;19927;-59